Time;durP1;ratioP1;P1;durP2;ratioP2;P2;SDS_P1;SDS_P2;PMS_P1;PMS_P2;Temp;Humidity;BMP_temperature;BMP_pressure;BME280_temperature;BME280_humidity;BME280_pressure;Samples;Min_cycle;Max_cycle;Signal;HPM_P1;HPM_P2
2022/10/02 00:00:01;;;;;;;0.60;0.60;;;12.00;99.90;;;;;;5001694;27;20353;-80
2022/10/02 00:02:39;;;;;;;0.60;0.60;;;12.00;99.90;;;;;;5006295;27;20047;-82
2022/10/02 00:05:13;;;;;;;0.60;0.60;;;12.10;99.90;;;;;;5006628;27;20051;-82
2022/10/02 00:07:48;;;;;;;0.60;0.60;;;12.00;99.90;;;;;;5021753;27;20556;-80
2022/10/02 00:10:23;;;;;;;0.52;0.52;;;12.10;99.90;;;;;;5001076;27;20450;-81
2022/10/02 00:12:53;;;;;;;0.60;0.60;;;12.20;99.90;;;;;;5009629;27;20047;-81
2022/10/02 00:15:28;;;;;;;0.60;0.60;;;12.20;99.90;;;;;;5001673;27;20081;-81
2022/10/02 00:18:08;;;;;;;0.50;0.50;;;12.20;99.90;;;;;;5005793;27;20592;-83
2022/10/02 00:20:59;;;;;;;0.60;0.60;;;12.20;99.90;;;;;;5001398;27;20405;-81
2022/10/02 00:23:44;;;;;;;0.50;0.50;;;12.20;99.90;;;;;;4963672;28;20461;-81
2022/10/02 00:26:19;;;;;;;0.60;0.60;;;12.20;99.90;;;;;;5002018;27;20494;-81
2022/10/02 00:29:08;;;;;;;0.50;0.50;;;12.10;99.90;;;;;;5008340;27;20123;-81
2022/10/02 00:31:53;;;;;;;0.50;0.50;;;12.10;99.90;;;;;;5015880;27;20046;-81
2022/10/02 00:34:37;;;;;;;0.60;0.60;;;12.10;99.90;;;;;;5008384;28;20055;-81
2022/10/02 00:37:25;;;;;;;0.60;0.60;;;12.10;99.90;;;;;;4987443;27;20039;-82
2022/10/02 00:40:13;;;;;;;0.60;0.60;;;12.10;99.90;;;;;;4995351;27;20051;-81
2022/10/02 00:42:47;;;;;;;0.50;0.50;;;12.10;99.90;;;;;;4997140;28;20756;-81
2022/10/02 00:45:37;;;;;;;0.50;0.50;;;12.20;99.90;;;;;;5004650;28;20618;-82
2022/10/02 00:48:15;;;;;;;0.50;0.50;;;12.10;99.90;;;;;;5006156;27;20070;-82
2022/10/02 00:50:47;;;;;;;0.60;0.60;;;12.20;99.90;;;;;;5000805;28;20183;-82
2022/10/02 00:53:34;;;;;;;0.50;0.50;;;12.20;99.90;;;;;;5009051;28;20763;-83
2022/10/02 00:56:24;;;;;;;0.60;0.60;;;12.20;99.90;;;;;;5005492;27;20698;-81
2022/10/02 00:59:12;;;;;;;0.60;0.60;;;12.20;99.90;;;;;;5000937;28;20058;-81
2022/10/02 01:01:58;;;;;;;0.60;0.60;;;12.30;99.90;;;;;;5015867;27;20122;-81
2022/10/02 01:04:31;;;;;;;0.60;0.60;;;12.30;99.90;;;;;;4995803;28;20722;-83
2022/10/02 01:06:57;;;;;;;0.60;0.60;;;12.30;99.90;;;;;;4999446;28;20590;-81
2022/10/02 01:09:24;;;;;;;0.60;0.60;;;12.30;99.90;;;;;;4997131;28;20035;-82
2022/10/02 01:11:50;;;;;;;0.50;0.50;;;12.30;99.90;;;;;;4999910;27;20188;-81
2022/10/02 01:14:16;;;;;;;0.50;0.50;;;12.30;99.90;;;;;;5014723;27;20047;-82
2022/10/02 01:16:43;;;;;;;0.60;0.60;;;12.30;99.90;;;;;;5003859;27;20035;-81
2022/10/02 01:19:43;;;;;;;0.50;0.50;;;12.20;99.90;;;;;;5008344;27;20393;-81
2022/10/02 01:22:28;;;;;;;0.50;0.50;;;12.30;99.90;;;;;;5016811;27;20055;-82
2022/10/02 01:24:55;;;;;;;0.60;0.60;;;12.20;99.90;;;;;;5008887;27;20042;-81
2022/10/02 01:27:23;;;;;;;0.60;0.60;;;12.40;99.90;;;;;;4989592;27;21587;-81
2022/10/02 01:30:10;;;;;;;0.50;0.50;;;12.40;99.90;;;;;;5006490;27;20075;-80
2022/10/02 01:32:41;;;;;;;0.60;0.60;;;12.40;99.90;;;;;;5008928;27;20060;-82
2022/10/02 01:35:07;;;;;;;0.50;0.50;;;12.50;99.90;;;;;;5007240;27;20082;-83
2022/10/02 01:37:38;;;;;;;0.50;0.50;;;12.60;99.90;;;;;;5007948;27;20054;-81
2022/10/02 01:40:09;;;;;;;0.50;0.50;;;12.60;99.90;;;;;;5028147;27;20059;-80
2022/10/02 01:42:39;;;;;;;0.57;0.57;;;12.60;99.90;;;;;;5001053;27;20088;-82
2022/10/02 01:45:07;;;;;;;0.50;0.50;;;12.60;99.90;;;;;;4997582;27;20074;-81
2022/10/02 01:47:58;;;;;;;0.50;0.50;;;12.70;99.90;;;;;;5005296;27;21050;-81
2022/10/02 01:51:09;;;;;;;0.50;0.50;;;12.70;99.90;;;;;;4997297;27;20772;-82
2022/10/02 01:53:47;;;;;;;0.50;0.50;;;12.80;99.90;;;;;;4998933;27;20137;-81
2022/10/02 01:56:38;;;;;;;0.50;0.50;;;12.90;99.90;;;;;;5003497;27;20047;-83
2022/10/02 01:59:23;;;;;;;0.50;0.50;;;12.90;99.90;;;;;;5008444;27;20116;-82
2022/10/02 02:01:58;;;;;;;0.50;0.50;;;12.90;99.90;;;;;;5017006;27;20440;-82
2022/10/02 02:04:27;;;;;;;0.50;0.50;;;12.80;99.90;;;;;;5004881;27;20062;-82
2022/10/02 02:07:02;;;;;;;0.60;0.60;;;12.80;99.90;;;;;;5007245;27;20457;-85
2022/10/02 02:09:44;;;;;;;0.50;0.50;;;12.80;99.90;;;;;;5008813;27;20699;-84
2022/10/02 02:12:37;;;;;;;0.50;0.50;;;12.80;99.90;;;;;;5024385;27;20044;-81
2022/10/02 02:15:10;;;;;;;0.50;0.50;;;12.80;99.90;;;;;;4996304;27;20044;-82
2022/10/02 02:17:47;;;;;;;0.50;0.50;;;12.80;99.90;;;;;;5004369;27;20079;-83
2022/10/02 02:20:20;;;;;;;0.50;0.50;;;12.80;99.90;;;;;;5025373;27;20480;-82
2022/10/02 02:22:51;;;;;;;0.50;0.50;;;12.80;99.90;;;;;;5002889;27;20879;-82
2022/10/02 02:25:23;;;;;;;0.50;0.50;;;12.80;99.90;;;;;;4997120;27;20048;-82
2022/10/02 02:28:05;;;;;;;0.50;0.50;;;12.70;99.90;;;;;;4985658;27;20055;-81
2022/10/02 02:30:35;;;;;;;0.50;0.50;;;12.70;99.90;;;;;;5021443;27;20241;-81
2022/10/02 02:33:09;;;;;;;0.50;0.50;;;12.70;99.90;;;;;;5018766;27;20058;-83
2022/10/02 02:35:42;;;;;;;0.50;0.50;;;12.60;99.90;;;;;;5006158;27;20118;-82
2022/10/02 02:38:26;;;;;;;0.60;0.60;;;12.60;99.90;;;;;;4999769;27;20042;-82
2022/10/02 02:40:59;;;;;;;0.60;0.60;;;12.50;99.90;;;;;;5005246;27;21006;-82
2022/10/02 02:43:58;;;;;;;0.50;0.50;;;12.40;99.90;;;;;;5024112;27;20158;-82
2022/10/02 02:46:27;;;;;;;0.60;0.60;;;12.40;99.90;;;;;;5008896;27;20059;-83
2022/10/02 02:49:06;;;;;;;0.50;0.50;;;12.40;99.90;;;;;;4997336;28;20052;-83
2022/10/02 02:51:38;;;;;;;0.50;0.50;;;12.40;99.90;;;;;;5007729;28;20093;-82
2022/10/02 02:54:31;;;;;;;0.60;0.60;;;12.40;99.90;;;;;;5000367;28;20120;-82
2022/10/02 02:57:00;;;;;;;0.50;0.50;;;12.30;99.90;;;;;;5005581;28;20418;-82
2022/10/02 02:59:30;;;;;;;0.50;0.50;;;12.40;99.90;;;;;;4997108;28;20276;-81
2022/10/02 03:01:58;;;;;;;0.50;0.50;;;12.40;99.90;;;;;;4992325;28;20676;-82
2022/10/02 03:04:24;;;;;;;0.50;0.50;;;12.30;99.90;;;;;;4981089;28;20772;-83
2022/10/02 03:06:55;;;;;;;0.50;0.50;;;12.30;99.90;;;;;;5020037;27;20661;-81
2022/10/02 03:09:22;;;;;;;0.50;0.50;;;12.30;99.90;;;;;;4998458;27;20043;-81
2022/10/02 03:12:22;;;;;;;0.50;0.50;;;12.30;99.90;;;;;;5009461;27;20044;-82
2022/10/02 03:15:30;;;;;;;0.50;0.50;;;12.30;99.90;;;;;;5005584;27;20048;-83
2022/10/02 03:18:02;;;;;;;0.60;0.60;;;12.30;99.90;;;;;;4995395;27;20062;-83
2022/10/02 03:20:31;;;;;;;0.60;0.60;;;12.20;99.90;;;;;;5005897;27;20052;-82
2022/10/02 03:23:09;;;;;;;0.50;0.50;;;12.20;99.90;;;;;;5001498;28;20059;-82
2022/10/02 03:26:12;;;;;;;0.50;0.50;;;12.20;99.90;;;;;;5001592;28;20506;-81
2022/10/02 03:29:00;;;;;;;0.50;0.50;;;12.20;99.90;;;;;;4992960;28;20712;-81
2022/10/02 03:31:29;;;;;;;0.60;0.60;;;12.20;99.90;;;;;;4999187;27;20134;-82
2022/10/02 03:33:57;;;;;;;0.60;0.60;;;12.20;99.90;;;;;;4993072;28;20060;-82
2022/10/02 03:36:24;;;;;;;0.52;0.52;;;12.10;99.90;;;;;;5005883;27;20071;-82
2022/10/02 03:38:53;;;;;;;0.60;0.60;;;12.10;99.90;;;;;;5000107;27;20082;-82
2022/10/02 03:41:21;;;;;;;0.50;0.50;;;12.00;99.90;;;;;;4995722;27;20588;-82
2022/10/02 03:43:46;;;;;;;0.50;0.50;;;12.00;99.90;;;;;;4987410;27;20083;-82
2022/10/02 03:46:12;;;;;;;0.50;0.50;;;12.00;99.90;;;;;;5000064;27;20079;-82
2022/10/02 03:48:38;;;;;;;0.60;0.60;;;12.00;99.90;;;;;;4982979;28;20063;-81
2022/10/02 03:51:04;;;;;;;0.50;0.50;;;12.00;99.90;;;;;;5000793;28;20618;-82
2022/10/02 03:53:34;;;;;;;0.50;0.50;;;11.90;99.90;;;;;;5001732;28;20653;-81
2022/10/02 03:56:06;;;;;;;0.50;0.50;;;11.90;99.90;;;;;;5009189;28;20040;-82
2022/10/02 03:58:33;;;;;;;0.60;0.60;;;11.90;99.90;;;;;;5002536;28;20043;-81
2022/10/02 04:01:02;;;;;;;0.50;0.50;;;11.90;99.90;;;;;;4992092;28;20448;-82
2022/10/02 04:03:37;;;;;;;0.50;0.50;;;12.00;99.90;;;;;;4994452;28;21118;-82
2022/10/02 04:06:08;;;;;;;0.50;0.50;;;11.90;99.90;;;;;;4998673;28;20401;-81
2022/10/02 04:08:40;;;;;;;0.50;0.50;;;12.00;99.90;;;;;;5001739;28;20087;-81
2022/10/02 04:11:08;;;;;;;0.50;0.50;;;12.00;99.90;;;;;;4999659;28;20080;-82
2022/10/02 04:13:47;;;;;;;0.60;0.60;;;12.00;99.90;;;;;;5000299;28;20047;-81
2022/10/02 04:16:19;;;;;;;0.50;0.50;;;12.10;99.90;;;;;;5001011;28;20529;-82
2022/10/02 04:19:05;;;;;;;0.50;0.50;;;12.10;99.90;;;;;;5005776;28;20433;-81
2022/10/02 04:21:43;;;;;;;0.60;0.60;;;12.10;99.90;;;;;;4985808;28;20056;-82
2022/10/02 04:24:20;;;;;;;0.50;0.50;;;12.00;99.90;;;;;;5010959;27;20051;-84
2022/10/02 04:27:01;;;;;;;0.50;0.50;;;12.10;99.90;;;;;;5010957;28;20051;-81
2022/10/02 04:29:34;;;;;;;0.60;0.60;;;12.10;99.90;;;;;;5009437;28;20134;-82
2022/10/02 04:32:24;;;;;;;0.50;0.50;;;12.00;99.90;;;;;;5000510;28;20548;-81
2022/10/02 04:34:51;;;;;;;0.50;0.50;;;12.00;99.90;;;;;;5002751;27;20548;-82
2022/10/02 04:37:55;;;;;;;0.50;0.50;;;11.90;99.90;;;;;;4995148;27;20056;-82
2022/10/02 04:40:53;;;;;;;0.60;0.60;;;11.90;99.90;;;;;;5002052;27;20750;-82
2022/10/02 04:43:55;;;;;;;0.50;0.50;;;11.90;99.90;;;;;;4997505;28;20055;-82
2022/10/02 04:46:36;;;;;;;0.60;0.60;;;11.90;99.90;;;;;;4989419;28;20510;-82
2022/10/02 04:49:21;;;;;;;0.60;0.60;;;11.90;99.90;;;;;;5014273;27;20090;-84
2022/10/02 04:51:52;;;;;;;;;;;12.00;99.90;;;;;;4979344;27;20055;-81
2022/10/02 04:54:21;;;;;;;0.60;0.60;;;12.00;99.90;;;;;;5002418;28;20086;-81
2022/10/02 04:57:21;;;;;;;0.60;0.60;;;12.10;99.90;;;;;;4999168;27;20781;-84
2022/10/02 05:00:09;;;;;;;0.60;0.60;;;12.10;99.90;;;;;;5009379;27;20805;-84
2022/10/02 05:03:14;;;;;;;0.60;0.60;;;12.10;99.90;;;;;;5011198;27;20847;-83
2022/10/02 05:05:39;;;;;;;0.60;0.60;;;12.10;99.90;;;;;;4998112;28;20039;-82
2022/10/02 05:08:14;;;;;;;0.60;0.60;;;12.10;99.90;;;;;;5011507;28;20044;-82
2022/10/02 05:10:58;;;;;;;0.50;0.50;;;12.00;99.90;;;;;;5003073;27;20043;-81
2022/10/02 05:13:43;;;;;;;;;;;12.10;99.90;;;;;;5021554;27;20163;-82
2022/10/02 05:16:24;;;;;;;0.60;0.60;;;12.00;99.90;;;;;;5002218;28;20614;-83
2022/10/02 05:19:18;;;;;;;0.50;0.50;;;12.10;99.90;;;;;;4997641;28;20571;-82
2022/10/02 05:21:50;;;;;;;0.60;0.60;;;12.10;99.90;;;;;;4994773;27;20068;-83
2022/10/02 05:25:02;;;;;;;0.50;0.50;;;12.00;99.90;;;;;;5000525;28;20047;-83
2022/10/02 05:27:43;;;;;;;0.60;0.60;;;12.10;99.90;;;;;;5005655;28;20051;-82
2022/10/02 05:30:17;;;;;;;0.60;0.60;;;12.00;99.90;;;;;;5007280;28;20639;-82
2022/10/02 05:32:49;;;;;;;0.60;0.60;;;12.00;99.90;;;;;;5017774;28;20051;-83
2022/10/02 05:35:37;;;;;;;0.60;0.60;;;12.00;99.90;;;;;;5004302;28;20055;-81
2022/10/02 05:38:27;;;;;;;0.60;0.60;;;11.90;99.90;;;;;;5015351;28;20453;-82
2022/10/02 05:41:39;;;;;;;0.60;0.60;;;11.90;99.90;;;;;;5004738;27;20051;-83
2022/10/02 05:45:09;;;;;;;0.60;0.60;;;11.90;99.90;;;;;;4997702;28;20087;-83
2022/10/02 05:47:39;;;;;;;0.60;0.60;;;11.90;99.90;;;;;;4905220;28;20056;-82
2022/10/02 05:50:16;;;;;;;0.60;0.60;;;11.90;99.90;;;;;;4985001;28;20569;-81
2022/10/02 05:52:54;;;;;;;0.60;0.60;;;11.90;99.90;;;;;;4990653;28;20078;-81
2022/10/02 05:55:45;;;;;;;0.60;0.60;;;11.90;99.90;;;;;;4978251;28;20049;-82
2022/10/02 05:58:24;;;;;;;0.60;0.60;;;12.00;99.90;;;;;;4988999;28;20113;-82
2022/10/02 06:00:54;;;;;;;0.50;0.50;;;12.00;99.90;;;;;;4974807;28;20052;-81
2022/10/02 06:03:32;;;;;;;0.60;0.60;;;12.00;99.90;;;;;;4964636;28;20927;-82
2022/10/02 06:06:04;;;;;;;0.60;0.60;;;12.10;99.90;;;;;;4984108;28;20075;-82
2022/10/02 06:08:51;;;;;;;0.50;0.50;;;12.10;99.90;;;;;;4981521;28;20502;-81
2022/10/02 06:11:55;;;;;;;0.50;0.50;;;12.10;99.90;;;;;;4985331;28;20048;-81
2022/10/02 06:14:53;;;;;;;0.60;0.60;;;12.20;99.90;;;;;;4990582;28;20044;-81
2022/10/02 06:17:30;;;;;;;0.60;0.60;;;12.20;99.90;;;;;;4979511;28;20052;-82
2022/10/02 06:20:11;;;;;;;0.60;0.60;;;12.40;99.90;;;;;;4982475;28;20040;-79
2022/10/02 06:22:48;;;;;;;0.50;0.50;;;12.40;99.90;;;;;;4977814;28;20094;-80
2022/10/02 06:25:32;;;;;;;0.60;0.60;;;12.50;99.90;;;;;;4983665;28;20502;-80
2022/10/02 06:28:10;;;;;;;0.50;0.50;;;12.60;99.90;;;;;;4989113;28;20041;-81
2022/10/02 06:30:40;;;;;;;0.50;0.50;;;12.70;99.90;;;;;;4982671;28;20677;-83
2022/10/02 06:33:17;;;;;;;2.08;1.98;;;12.80;99.90;;;;;;4980923;28;20048;-82
2022/10/02 06:36:10;;;;;;;0.60;0.60;;;12.80;99.90;;;;;;4982300;28;20460;-81
2022/10/02 06:38:57;;;;;;;0.60;0.60;;;12.90;99.90;;;;;;4962113;28;20079;-84
2022/10/02 06:41:32;;;;;;;0.50;0.50;;;12.90;99.90;;;;;;4932696;28;20078;-82
2022/10/02 06:44:16;;;;;;;0.60;0.60;;;13.00;99.90;;;;;;4982677;28;20831;-82
2022/10/02 06:46:52;;;;;;;0.60;0.60;;;13.10;99.90;;;;;;4979199;28;20127;-83
2022/10/02 06:49:40;;;;;;;0.60;0.60;;;13.30;99.90;;;;;;5003959;28;20110;-82
2022/10/02 06:52:36;;;;;;;0.50;0.50;;;13.30;99.90;;;;;;5003661;27;20803;-83
2022/10/02 06:55:37;;;;;;;0.60;0.60;;;13.40;99.90;;;;;;4997276;28;20062;-83
2022/10/02 06:58:22;;;;;;;0.50;0.50;;;13.50;99.90;;;;;;5000662;28;20138;-82
2022/10/02 07:01:12;;;;;;;0.60;0.60;;;13.50;99.90;;;;;;5000023;27;20283;-83
2022/10/02 07:04:07;;;;;;;0.50;0.50;;;13.60;99.90;;;;;;4990318;28;20523;-83
2022/10/02 07:06:54;;;;;;;0.50;0.50;;;13.70;99.90;;;;;;4985066;28;20055;-82
2022/10/02 07:09:51;;;;;;;0.50;0.50;;;13.90;99.90;;;;;;4997543;28;20055;-82
2022/10/02 07:12:34;;;;;;;0.50;0.50;;;13.90;99.90;;;;;;5000938;28;20055;-82
2022/10/02 07:15:28;;;;;;;0.50;0.50;;;14.00;99.90;;;;;;4997235;27;20105;-83
2022/10/02 07:18:18;;;;;;;0.57;0.57;;;14.20;99.90;;;;;;5007417;27;20057;-81
2022/10/02 07:20:44;;;;;;;0.50;0.50;;;14.30;99.90;;;;;;5002588;27;20048;-83
2022/10/02 07:23:46;;;;;;;0.50;0.50;;;14.40;99.90;;;;;;4997618;28;20480;-83
2022/10/02 07:26:23;;;;;;;0.50;0.50;;;14.50;99.90;;;;;;5000601;28;20047;-82
2022/10/02 07:29:30;;;;;;;0.50;0.50;;;14.50;99.90;;;;;;5008128;28;20387;-82
2022/10/02 07:32:12;;;;;;;0.50;0.50;;;14.60;99.90;;;;;;4969084;28;20067;-83
2022/10/02 07:34:52;;;;;;;0.50;0.50;;;14.80;99.90;;;;;;5002607;27;20111;-80
2022/10/02 07:37:40;;;;;;;0.50;0.50;;;14.90;99.90;;;;;;5003659;28;20617;-84
2022/10/02 07:40:33;;;;;;;0.50;0.50;;;15.00;99.90;;;;;;4986092;28;20079;-81
2022/10/02 07:43:15;;;;;;;0.50;0.50;;;15.00;99.90;;;;;;4998618;28;20056;-83
2022/10/02 07:45:51;;;;;;;0.50;0.50;;;15.10;99.90;;;;;;4992482;28;20047;-83
2022/10/02 07:48:32;;;;;;;0.50;0.50;;;15.20;99.90;;;;;;4991378;28;20500;-80
2022/10/02 07:51:47;;;;;;;0.50;0.50;;;15.30;99.90;;;;;;4996692;28;21099;-82
2022/10/02 07:54:51;;;;;;;0.50;0.50;;;15.50;99.90;;;;;;5002290;28;20043;-82
2022/10/02 07:57:35;;;;;;;0.50;0.50;;;15.60;99.90;;;;;;4999645;28;20515;-84
2022/10/02 08:00:09;;;;;;;;;;;15.80;99.90;;;;;;5007057;28;20527;-84
2022/10/02 08:02:38;;;;;;;0.50;0.50;;;16.00;99.90;;;;;;5011205;28;19954;-81
2022/10/02 08:05:17;;;;;;;0.50;0.50;;;16.20;99.90;;;;;;5003637;28;20051;-82
2022/10/02 08:07:47;;;;;;;0.50;0.50;;;16.20;99.90;;;;;;4994593;27;20058;-80
2022/10/02 08:10:15;;;;;;;0.50;0.50;;;16.10;99.90;;;;;;4968926;28;20961;-83
2022/10/02 08:12:51;;;;;;;0.50;0.50;;;16.00;99.90;;;;;;4997512;27;20243;-82
2022/10/02 08:15:19;;;;;;;0.50;0.50;;;16.10;99.90;;;;;;4999918;28;20059;-82
2022/10/02 08:17:49;;;;;;;0.50;0.50;;;16.30;99.90;;;;;;5002307;28;20491;-82
2022/10/02 08:20:16;;;;;;;0.45;0.45;;;16.10;99.90;;;;;;5003169;28;20896;-82
2022/10/02 08:22:54;;;;;;;0.50;0.50;;;16.00;99.90;;;;;;4986667;28;20113;-81
2022/10/02 08:25:25;;;;;;;0.50;0.50;;;15.90;99.90;;;;;;4998846;28;20094;-83
2022/10/02 08:28:40;;;;;;;0.50;0.50;;;16.10;99.90;;;;;;4997026;28;20089;-82
2022/10/02 08:31:11;;;;;;;0.50;0.50;;;16.40;99.90;;;;;;4994968;27;20055;-81
2022/10/02 08:33:37;;;;;;;0.47;0.47;;;16.50;99.90;;;;;;4997687;27;20052;-82
2022/10/02 08:36:33;;;;;;;0.50;0.50;;;16.50;99.90;;;;;;4996694;28;20580;-82
2022/10/02 08:39:30;;;;;;;0.50;0.50;;;16.40;99.90;;;;;;5000268;28;20060;-83
2022/10/02 08:42:08;;;;;;;0.50;0.50;;;16.40;99.90;;;;;;4993214;28;20044;-82
2022/10/02 08:45:11;;;;;;;0.50;0.50;;;16.20;99.90;;;;;;4999125;28;20322;-83
2022/10/02 08:48:27;;;;;;;0.50;0.50;;;16.40;99.90;;;;;;4997554;28;20058;-85
2022/10/02 08:51:28;;;;;;;0.50;0.50;;;16.60;99.90;;;;;;4935313;28;20604;-82
2022/10/02 08:54:14;;;;;;;0.50;0.50;;;16.80;99.90;;;;;;5020842;27;20734;-84
2022/10/02 08:56:50;;;;;;;0.50;0.50;;;17.00;99.90;;;;;;5022708;27;20895;-82
2022/10/02 08:59:31;;;;;;;0.50;0.50;;;16.70;99.90;;;;;;4986304;27;20047;-82
2022/10/02 09:02:31;;;;;;;0.50;0.50;;;16.80;99.90;;;;;;5020037;27;20043;-81
2022/10/02 09:05:25;;;;;;;0.50;0.50;;;17.00;99.90;;;;;;5024863;27;20812;-85
2022/10/02 09:08:07;;;;;;;0.50;0.50;;;16.80;99.90;;;;;;4991764;28;20213;-82
2022/10/02 09:10:51;;;;;;;0.50;0.50;;;17.20;99.90;;;;;;5010588;28;20505;-83
2022/10/02 09:13:42;;;;;;;0.50;0.50;;;16.90;99.90;;;;;;5004193;28;20850;-83
2022/10/02 09:16:09;;;;;;;0.50;0.50;;;17.20;99.90;;;;;;4994940;28;20283;-82
2022/10/02 09:18:57;;;;;;;0.50;0.50;;;17.40;99.90;;;;;;5004401;28;20046;-83
2022/10/02 09:21:29;;;;;;;0.50;0.50;;;17.20;99.90;;;;;;5000816;28;20468;-80
2022/10/02 09:24:19;;;;;;;0.50;0.50;;;17.20;99.90;;;;;;5006518;28;20039;-80
2022/10/02 09:27:10;;;;;;;0.50;0.50;;;17.40;99.90;;;;;;4996036;28;20043;-78
2022/10/02 09:30:19;;;;;;;0.50;0.50;;;17.70;99.90;;;;;;4997506;28;20043;-81
2022/10/02 09:33:14;;;;;;;0.50;0.50;;;17.60;99.90;;;;;;5011876;28;20555;-81
2022/10/02 09:35:43;;;;;;;0.40;0.40;;;17.50;99.90;;;;;;4998727;27;20444;-80
2022/10/02 09:38:50;;;;;;;0.40;0.40;;;17.70;99.90;;;;;;5013656;27;20285;-82
2022/10/02 09:41:50;;;;;;;0.50;0.50;;;17.40;99.90;;;;;;5004719;27;20058;-80
2022/10/02 09:44:55;;;;;;;0.50;0.50;;;17.40;99.90;;;;;;5023592;27;20051;-82
2022/10/02 09:47:39;;;;;;;0.50;0.50;;;17.20;99.90;;;;;;5004941;27;20047;-81
2022/10/02 09:50:09;;;;;;;0.50;0.50;;;17.10;99.90;;;;;;5022843;27;20077;-81
2022/10/02 09:52:56;;;;;;;0.50;0.50;;;17.50;99.90;;;;;;5007409;27;20737;-80
2022/10/02 09:55:55;;;;;;;0.40;0.40;;;17.70;99.90;;;;;;5026744;27;20300;-80
2022/10/02 09:58:51;;;;;;;0.50;0.50;;;17.60;99.90;;;;;;5024561;27;20043;-80
2022/10/02 10:01:36;;;;;;;0.50;0.50;;;18.00;99.90;;;;;;5008646;27;20507;-83
2022/10/02 10:04:21;;;;;;;0.40;0.40;;;18.20;99.90;;;;;;5031778;27;20238;-81
2022/10/02 10:06:49;;;;;;;;;;;18.20;99.90;;;;;;5010162;27;20539;-82
2022/10/02 10:09:47;;;;;;;0.50;0.50;;;18.00;99.90;;;;;;5002678;27;20057;-80
2022/10/02 10:12:58;;;;;;;0.50;0.50;;;17.80;99.90;;;;;;5008654;27;20039;-80
2022/10/02 10:16:01;;;;;;;0.50;0.50;;;17.90;99.90;;;;;;4985589;28;20596;-80
2022/10/02 10:18:55;;;;;;;0.50;0.50;;;17.60;99.90;;;;;;4966564;28;20804;-80
2022/10/02 10:21:47;;;;;;;0.50;0.50;;;17.20;99.90;;;;;;5007699;27;20055;-81
2022/10/02 10:24:36;;;;;;;0.50;0.50;;;17.60;99.90;;;;;;5007585;27;20102;-82
2022/10/02 10:27:38;;;;;;;0.50;0.50;;;17.90;99.90;;;;;;5028007;27;20789;-83
2022/10/02 10:30:22;;;;;;;0.50;0.50;;;18.20;99.90;;;;;;5001836;27;20051;-81
2022/10/02 10:33:07;;;;;;;;;;;18.60;99.90;;;;;;4987386;27;20039;-81
2022/10/02 10:35:59;;;;;;;0.40;0.40;;;18.80;99.90;;;;;;5021384;27;20024;-83
2022/10/02 10:38:31;;;;;;;0.40;0.40;;;18.90;99.90;;;;;;5028658;27;20104;-80
2022/10/02 10:41:26;;;;;;;0.40;0.40;;;18.90;99.90;;;;;;5012250;27;20044;-80
2022/10/02 10:44:04;;;;;;;0.50;0.50;;;18.80;99.90;;;;;;5008469;27;20111;-82
2022/10/02 10:46:39;;;;;;;0.50;0.50;;;18.40;99.90;;;;;;5038107;27;20046;-81
2022/10/02 10:49:43;;;;;;;0.50;0.50;;;18.30;99.90;;;;;;5025594;27;20116;-82
2022/10/02 10:52:14;;;;;;;0.40;0.40;;;18.30;99.90;;;;;;5039701;27;20563;-81
2022/10/02 10:55:13;;;;;;;0.50;0.50;;;18.80;99.90;;;;;;5019571;27;20096;-82
2022/10/02 10:58:00;;;;;;;0.50;0.50;;;19.00;99.90;;;;;;5000663;27;20039;-80
2022/10/02 11:00:48;;;;;;;0.50;0.50;;;19.20;99.90;;;;;;4996992;27;20055;-85
2022/10/02 11:03:43;;;;;;;0.40;0.40;;;19.20;99.90;;;;;;5026733;27;20696;-81
2022/10/02 11:06:29;;;;;;;0.40;0.40;;;19.00;99.90;;;;;;5027578;27;20574;-83
2022/10/02 11:09:19;;;;;;;0.40;0.40;;;18.80;99.90;;;;;;5009744;27;20046;-79
2022/10/02 11:12:10;;;;;;;0.50;0.50;;;18.70;99.90;;;;;;5016539;27;20151;-80
2022/10/02 11:14:59;;;;;;;0.50;0.50;;;18.50;99.90;;;;;;5021979;27;20206;-79
2022/10/02 11:17:50;;;;;;;0.50;0.50;;;18.40;99.90;;;;;;5032671;27;21065;-80
2022/10/02 11:20:29;;;;;;;0.50;0.50;;;18.20;99.90;;;;;;5004721;27;20152;-78
2022/10/02 11:23:27;;;;;;;0.50;0.50;;;18.30;99.90;;;;;;5031567;27;20899;-77
2022/10/02 11:25:58;;;;;;;0.50;0.50;;;18.20;99.90;;;;;;4991022;27;20058;-79
2022/10/02 11:28:50;;;;;;;0.40;0.40;;;18.30;99.90;;;;;;5010054;27;20058;-79
2022/10/02 11:31:25;;;;;;;0.50;0.50;;;18.90;99.90;;;;;;5032308;27;20036;-78
2022/10/02 11:34:03;;;;;;;0.52;0.52;;;19.20;99.90;;;;;;5029578;27;20070;-81
2022/10/02 11:36:41;;;;;;;0.40;0.40;;;19.00;99.90;;;;;;5011955;27;20039;-80
2022/10/02 11:39:26;;;;;;;0.40;0.40;;;18.40;99.90;;;;;;5004847;28;20043;-80
2022/10/02 11:42:29;;;;;;;0.50;0.50;;;18.50;99.90;;;;;;5005947;27;20111;-80
2022/10/02 11:45:24;;;;;;;0.40;0.40;;;18.90;99.90;;;;;;5010244;27;20778;-79
2022/10/02 11:48:10;;;;;;;0.40;0.40;;;19.20;99.90;;;;;;5029905;27;20051;-80
2022/10/02 11:51:00;;;;;;;0.40;0.40;;;19.60;99.90;;;;;;5001567;27;20058;-79
2022/10/02 11:53:56;;;;;;;0.50;0.50;;;19.60;99.90;;;;;;5028369;27;20067;-79
2022/10/02 11:56:44;;;;;;;0.40;0.40;;;20.00;99.90;;;;;;5008656;27;20129;-80
2022/10/02 11:59:30;;;;;;;0.40;0.40;;;20.40;99.90;;;;;;5001450;27;20442;-82
2022/10/02 12:02:10;;;;;;;0.40;0.40;;;19.70;99.90;;;;;;5009286;27;20803;-81
2022/10/02 12:04:47;;;;;;;0.45;0.45;;;19.10;99.90;;;;;;4991843;27;20047;-79
2022/10/02 12:07:28;;;;;;;0.40;0.40;;;18.70;99.90;;;;;;5014787;27;20817;-80
2022/10/02 12:10:12;;;;;;;0.40;0.40;;;18.30;99.90;;;;;;5014598;27;20111;-78
2022/10/02 12:13:29;;;;;;;0.45;0.45;;;18.00;99.90;;;;;;4996493;27;20452;-79
2022/10/02 12:16:09;;;;;;;0.40;0.40;;;17.90;99.90;;;;;;4917218;28;20068;-79
2022/10/02 12:18:54;;;;;;;0.40;0.40;;;17.80;99.90;;;;;;4931596;28;21767;-79
2022/10/02 12:28:09;;;;;;;0.50;0.50;;;17.70;99.90;;;;;;4992784;27;20055;-79
2022/10/02 12:30:42;;;;;;;0.40;0.40;;;17.60;99.90;;;;;;4994816;27;20104;-80
2022/10/02 12:33:45;;;;;;;0.40;0.40;;;17.80;99.90;;;;;;5017618;27;20932;-80
2022/10/02 12:36:34;;;;;;;0.40;0.40;;;17.60;99.90;;;;;;5014876;27;20255;-80
2022/10/02 12:39:06;;;;;;;0.50;0.50;;;18.00;99.90;;;;;;5008137;27;20043;-79
2022/10/02 12:42:08;;;;;;;0.40;0.40;;;18.40;99.90;;;;;;5013808;27;20976;-80
2022/10/02 12:45:01;;;;;;;0.40;0.40;;;18.80;99.90;;;;;;4982446;27;20070;-80
2022/10/02 12:47:30;;;;;;;0.40;0.40;;;19.00;99.90;;;;;;5010971;27;20078;-78
2022/10/02 12:50:03;;;;;;;0.40;0.40;;;19.40;99.90;;;;;;5016100;27;20054;-80
2022/10/02 12:52:56;;;;;;;0.40;0.40;;;19.40;99.90;;;;;;5001177;27;20103;-80
2022/10/02 12:55:53;;;;;;;0.40;0.40;;;19.70;99.90;;;;;;5004277;27;20289;-80
2022/10/02 12:58:22;;;;;;;0.40;0.40;;;19.70;99.90;;;;;;5017134;27;20042;-81
2022/10/02 13:01:21;;;;;;;0.40;0.40;;;19.80;99.90;;;;;;5002984;27;20048;-83
2022/10/02 13:04:09;;;;;;;0.40;0.40;;;19.90;99.90;;;;;;5003217;27;20797;-82
2022/10/02 13:06:55;;;;;;;0.40;0.40;;;20.00;99.90;;;;;;5005470;28;20456;-80
2022/10/02 13:09:27;;;;;;;0.40;0.40;;;20.00;99.90;;;;;;5016979;27;20051;-81
2022/10/02 13:12:11;;;;;;;0.30;0.30;;;20.30;99.90;;;;;;5009577;27;20047;-78
2022/10/02 13:14:37;;;;;;;;;;;20.40;99.90;;;;;;5001552;28;20642;-79
2022/10/02 13:17:30;;;;;;;0.40;0.40;;;20.00;99.90;;;;;;4981740;27;19923;-80
2022/10/02 13:20:02;;;;;;;0.40;0.40;;;19.30;99.90;;;;;;4995187;27;20054;-80
2022/10/02 13:22:44;;;;;;;0.40;0.40;;;18.90;99.90;;;;;;4985830;28;20744;-79
2022/10/02 13:25:56;;;;;;;0.40;0.40;;;19.20;99.90;;;;;;5001029;28;20038;-79
2022/10/02 13:28:43;;;;;;;0.40;0.40;;;19.70;99.90;;;;;;5018622;27;20047;-80
2022/10/02 13:31:17;;;;;;;0.40;0.40;;;19.70;99.90;;;;;;5005201;28;20047;-79
2022/10/02 13:33:59;;;;;;;0.40;0.40;;;18.90;99.90;;;;;;5016146;27;20515;-80
2022/10/02 13:36:39;;;;;;;0.40;0.40;;;18.30;99.90;;;;;;5008201;28;20423;-81
2022/10/02 13:39:23;;;;;;;0.40;0.40;;;18.50;99.90;;;;;;5019845;27;20058;-80
2022/10/02 13:42:27;;;;;;;0.40;0.40;;;18.70;99.90;;;;;;5024311;27;20113;-80
2022/10/02 13:45:09;;;;;;;0.40;0.40;;;19.00;99.90;;;;;;5005062;27;20066;-83
2022/10/02 13:47:38;;;;;;;0.40;0.40;;;19.10;99.90;;;;;;5032120;27;20816;-80
2022/10/02 13:50:16;;;;;;;0.40;0.40;;;19.20;99.90;;;;;;5006522;27;20873;-81
2022/10/02 13:52:54;;;;;;;0.40;0.40;;;19.00;99.90;;;;;;5013478;27;20050;-81
2022/10/02 13:55:28;;;;;;;0.40;0.40;;;18.90;99.90;;;;;;5017316;27;20831;-88
2022/10/02 13:58:12;;;;;;;0.50;0.50;;;19.00;99.90;;;;;;5010073;28;20044;-81
2022/10/02 14:00:44;;;;;;;0.40;0.40;;;18.70;99.90;;;;;;5020771;27;20053;-77
2022/10/02 14:03:30;;;;;;;0.40;0.40;;;18.80;99.90;;;;;;5002835;28;20081;-78
2022/10/02 14:06:02;;;;;;;0.40;0.40;;;18.80;99.90;;;;;;5003546;28;20694;-79
2022/10/02 14:08:47;;;;;;;0.40;0.40;;;18.80;99.90;;;;;;5024512;27;20047;-78
2022/10/02 14:11:32;;;;;;;0.40;0.40;;;19.20;99.90;;;;;;5025358;27;20980;-80
2022/10/02 14:14:42;;;;;;;0.50;0.50;;;19.20;99.90;;;;;;5012857;28;20402;-79